createdAt,value
2018-12-27T00:01:14.141Z,55.33
2018-12-27T00:03:44.088Z,46.75
2018-12-27T00:06:13.098Z,46.50
2018-12-27T00:08:42.501Z,46.15
2018-12-27T00:11:11.485Z,47.38
2018-12-27T00:13:40.467Z,43.58
2018-12-27T00:16:09.784Z,42.83
2018-12-27T00:18:38.745Z,46.95
2018-12-27T00:21:08.243Z,42.55
2018-12-27T00:23:37.502Z,47.73
2018-12-27T00:26:07.295Z,44.60
2018-12-27T00:28:36.987Z,42.73
2018-12-27T00:31:06.425Z,42.90
2018-12-27T00:33:36.428Z,43.83
2018-12-27T00:36:06.201Z,38.45
2018-12-27T00:38:35.812Z,43.00
2018-12-27T00:41:05.198Z,40.52
2018-12-27T00:43:34.922Z,45.48
2018-12-27T00:46:04.732Z,42.17
2018-12-27T00:48:35.385Z,40.05
2018-12-27T00:51:05.769Z,42.53
2018-12-27T00:53:35.479Z,43.42
2018-12-27T00:56:05.175Z,40.03
2018-12-27T00:58:35.037Z,41.15
2018-12-27T01:01:05.002Z,48.02
2018-12-27T01:03:34.760Z,36.13
2018-12-27T01:06:04.259Z,37.70
2018-12-27T01:08:34.189Z,48.30
2018-12-27T01:11:03.428Z,40.23
2018-12-27T01:13:32.915Z,47.25
2018-12-27T01:16:02.526Z,41.80
2018-12-27T01:18:31.770Z,47.27
2018-12-27T01:21:02.751Z,48.58
2018-12-27T01:23:32.089Z,44.33
2018-12-27T01:26:01.755Z,45.33
2018-12-27T01:28:31.635Z,43.90
2018-12-27T01:31:01.150Z,49.42
2018-12-27T01:33:30.673Z,43.28
2018-12-27T01:36:00.235Z,52.85
2018-12-27T01:38:29.620Z,40.80
2018-12-27T01:40:59.134Z,43.83
2018-12-27T01:43:29.177Z,41.70
2018-12-27T01:45:59.365Z,41.50
2018-12-27T01:48:29.310Z,45.85
2018-12-27T01:50:58.844Z,45.95
2018-12-27T01:53:28.417Z,41.30
2018-12-27T01:55:58.260Z,47.85
2018-12-27T01:58:29.089Z,39.65
2018-12-27T02:00:59.109Z,44.48
2018-12-27T02:03:28.665Z,41.73
2018-12-27T02:05:58.210Z,46.75
2018-12-27T02:08:27.726Z,44.05
2018-12-27T02:10:57.421Z,41.30
2018-12-27T02:13:27.502Z,45.48
2018-12-27T02:15:57.277Z,40.15
2018-12-27T02:18:26.678Z,44.93
2018-12-27T02:20:55.967Z,37.70
2018-12-27T02:23:25.276Z,38.48
2018-12-27T02:25:55.078Z,42.45
2018-12-27T02:28:24.636Z,42.40
2018-12-27T02:30:54.009Z,43.08
2018-12-27T02:33:23.902Z,41.40
2018-12-27T02:35:53.597Z,43.20
2018-12-27T02:38:22.736Z,38.75
2018-12-27T02:40:51.904Z,43.20
2018-12-27T02:43:21.400Z,38.33
2018-12-27T02:45:50.638Z,40.40
2018-12-27T02:48:20.108Z,39.45
2018-12-27T02:50:49.861Z,37.45
2018-12-27T02:53:19.118Z,41.92
2018-12-27T02:55:48.550Z,39.05
2018-12-27T02:58:17.849Z,34.63
2018-12-27T03:00:48.366Z,32.38
2018-12-27T03:03:17.839Z,35.17
2018-12-27T03:05:46.996Z,34.73
2018-12-27T03:08:16.191Z,39.27
2018-12-27T03:10:45.799Z,35.00
2018-12-27T03:13:15.371Z,40.65
2018-12-27T03:15:45.004Z,31.80
2018-12-27T03:18:14.234Z,41.50
2018-12-27T03:20:44.490Z,36.20
2018-12-27T03:23:13.705Z,39.80
2018-12-27T03:25:43.265Z,34.05
2018-12-27T03:28:12.389Z,39.80
2018-12-27T03:30:41.879Z,38.60
2018-12-27T03:33:10.994Z,33.63
2018-12-27T03:35:40.406Z,39.10
2018-12-27T03:38:09.580Z,50.38
2018-12-27T03:40:38.830Z,46.15
2018-12-27T03:43:08.030Z,44.88
2018-12-27T03:45:37.166Z,37.83
2018-12-27T03:48:07.428Z,39.80
2018-12-27T03:50:36.754Z,33.75
2018-12-27T03:53:06.666Z,34.20
2018-12-27T03:55:35.947Z,33.65
2018-12-27T03:58:05.435Z,34.40
2018-12-27T04:00:34.903Z,35.20
2018-12-27T04:03:04.824Z,35.68
2018-12-27T04:05:34.169Z,35.70
2018-12-27T04:08:04.255Z,37.40
2018-12-27T04:10:33.496Z,33.00
2018-12-27T04:13:07.432Z,40.08
2018-12-27T04:15:36.433Z,29.77
2018-12-27T04:18:06.611Z,37.10
2018-12-27T04:20:35.820Z,34.38
2018-12-27T04:23:05.639Z,32.50
2018-12-27T04:25:35.080Z,38.90
2018-12-27T04:28:04.290Z,32.85
2018-12-27T04:30:33.757Z,37.35
2018-12-27T04:33:04.261Z,34.00
2018-12-27T04:35:33.754Z,36.42
2018-12-27T04:38:03.135Z,35.52
2018-12-27T04:40:32.144Z,38.83
2018-12-27T04:43:03.178Z,32.93
2018-12-27T04:45:32.100Z,30.43
2018-12-27T04:48:01.338Z,37.53
2018-12-27T04:50:31.080Z,33.50
2018-12-27T04:53:00.419Z,31.87
2018-12-27T04:55:29.396Z,35.88
2018-12-27T04:57:58.573Z,37.63
2018-12-27T05:00:27.923Z,36.50
2018-12-27T05:02:56.923Z,38.33
2018-12-27T05:05:25.893Z,31.97
2018-12-27T05:07:55.189Z,31.80
2018-12-27T05:10:24.236Z,33.58
2018-12-27T05:12:53.286Z,32.45
2018-12-27T05:15:22.331Z,33.90
2018-12-27T05:17:51.662Z,32.25
2018-12-27T05:20:20.667Z,30.52
2018-12-27T05:22:49.792Z,29.40
2018-12-27T05:25:19.344Z,34.18
2018-12-27T05:27:48.650Z,27.15
2018-12-27T05:30:17.640Z,31.17
2018-12-27T05:32:46.834Z,30.48
2018-12-27T05:35:15.715Z,35.28
2018-12-27T05:37:44.733Z,29.95
2018-12-27T05:40:13.840Z,32.98
2018-12-27T05:42:43.183Z,32.03
2018-12-27T05:45:12.145Z,37.13
2018-12-27T05:47:42.431Z,32.25
2018-12-27T05:50:11.447Z,30.72
2018-12-27T05:52:40.763Z,37.58
2018-12-27T05:55:09.719Z,30.90
2018-12-27T05:57:38.750Z,34.20
2018-12-27T06:00:08.031Z,28.73
2018-12-27T06:02:37.039Z,32.45
2018-12-27T06:05:06.444Z,33.13
2018-12-27T06:07:35.696Z,31.75
2018-12-27T06:10:04.839Z,30.45
2018-12-27T06:12:34.166Z,31.37
2018-12-27T06:15:03.174Z,34.92
2018-12-27T06:17:32.814Z,32.48
2018-12-27T06:20:02.112Z,33.73
2018-12-27T06:22:31.650Z,32.05
2018-12-27T06:25:01.075Z,34.98
2018-12-27T06:27:30.577Z,30.12
2018-12-27T06:29:59.657Z,28.80
2018-12-27T06:32:28.576Z,32.25
2018-12-27T06:34:57.514Z,32.95
2018-12-27T06:37:26.837Z,29.50
2018-12-27T06:39:55.834Z,32.40
2018-12-27T06:42:25.117Z,31.82
2018-12-27T06:44:54.187Z,32.20
2018-12-27T06:47:23.561Z,34.20
2018-12-27T06:49:53.200Z,30.92
2018-12-27T06:52:22.339Z,39.08
2018-12-27T06:54:51.335Z,31.15
2018-12-27T06:57:20.498Z,28.55
2018-12-27T06:59:49.529Z,35.45
2018-12-27T07:02:18.900Z,27.27
2018-12-27T07:04:49.082Z,30.12
2018-12-27T07:07:18.724Z,33.78
2018-12-27T07:09:48.047Z,33.83
2018-12-27T07:12:17.527Z,34.25
2018-12-27T07:14:46.860Z,29.55
2018-12-27T07:17:16.250Z,31.17
2018-12-27T07:19:45.535Z,36.65
2018-12-27T07:22:14.892Z,28.98
2018-12-27T07:24:44.546Z,28.55
2018-12-27T07:27:13.707Z,24.60
2018-12-27T07:29:43.123Z,27.87
2018-12-27T07:32:12.350Z,26.37
2018-12-27T07:34:41.760Z,31.02
2018-12-27T07:37:11.244Z,31.60
2018-12-27T07:39:40.277Z,32.38
2018-12-27T07:42:09.221Z,32.67
2018-12-27T07:44:38.886Z,35.75
2018-12-27T07:47:08.381Z,33.50
2018-12-27T07:49:37.424Z,34.05
2018-12-27T07:52:06.381Z,34.65
2018-12-27T07:54:35.351Z,33.88
2018-12-27T07:57:04.426Z,30.82
2018-12-27T07:59:34.091Z,27.73
2018-12-27T08:02:03.432Z,32.10
2018-12-27T08:04:32.335Z,26.85
2018-12-27T08:07:01.272Z,26.77
2018-12-27T08:09:30.581Z,31.85
2018-12-27T08:11:59.898Z,26.95
2018-12-27T08:14:28.946Z,30.77
2018-12-27T08:16:58.323Z,30.45
2018-12-27T08:19:27.465Z,32.00
2018-12-27T08:21:56.754Z,24.85
2018-12-27T08:24:25.817Z,32.35
2018-12-27T08:26:55.569Z,27.80
2018-12-27T08:29:24.816Z,32.20
2018-12-27T08:31:53.835Z,32.03
2018-12-27T08:34:22.905Z,28.02
2018-12-27T08:36:52.247Z,29.35
2018-12-27T08:39:21.157Z,29.05
2018-12-27T08:41:50.811Z,28.55
2018-12-27T08:44:19.970Z,22.20
2018-12-27T08:46:49.612Z,31.05
2018-12-27T08:49:18.648Z,28.95
2018-12-27T08:51:47.610Z,25.70
2018-12-27T08:54:16.610Z,28.10
2018-12-27T08:56:45.913Z,31.00
2018-12-27T08:59:14.907Z,23.10
2018-12-27T09:01:45.036Z,27.48
2018-12-27T09:04:14.389Z,22.85
2018-12-27T09:06:43.359Z,24.87
2018-12-27T09:09:13.105Z,26.95
2018-12-27T09:11:42.065Z,25.15
2018-12-27T09:17:40.246Z,26.23
2018-12-27T09:23:51.134Z,28.05
2018-12-27T09:30:02.549Z,27.50
2018-12-27T09:32:31.448Z,24.10
2018-12-27T09:35:00.590Z,31.70
2018-12-27T09:37:30.549Z,28.75
2018-12-27T09:39:59.914Z,26.65
2018-12-27T09:42:29.217Z,26.02
2018-12-27T09:49:18.549Z,22.20
2018-12-27T09:57:04.752Z,27.00
2018-12-27T09:59:33.770Z,21.55
2018-12-27T10:02:02.874Z,25.85
2018-12-27T10:05:33.837Z,30.20
2018-12-27T10:07:59.682Z,24.55
2018-12-27T10:10:28.707Z,25.52
2018-12-27T10:12:57.865Z,24.98
2018-12-27T10:15:27.475Z,26.82
2018-12-27T10:17:56.772Z,23.67
2018-12-27T10:20:26.797Z,26.87
2018-12-27T10:22:55.785Z,22.55
2018-12-27T10:25:25.094Z,23.45
2018-12-27T10:27:55.036Z,22.37
2018-12-27T10:30:25.022Z,25.80
2018-12-27T10:32:55.108Z,20.97
2018-12-27T10:35:24.549Z,20.80
2018-12-27T10:37:53.961Z,26.60
2018-12-27T10:40:24.522Z,24.63
2018-12-27T10:42:53.769Z,23.83
2018-12-27T10:45:23.069Z,23.32
2018-12-27T10:47:52.389Z,24.63
2018-12-27T10:50:22.202Z,23.10
2018-12-27T10:52:51.493Z,26.05
2018-12-27T10:55:21.123Z,21.82
2018-12-27T10:57:50.928Z,22.37
2018-12-27T11:00:19.887Z,24.43
2018-12-27T11:02:49.131Z,29.55
2018-12-27T11:05:18.309Z,22.65
2018-12-27T11:07:47.592Z,21.15
2018-12-27T11:10:16.596Z,23.55
2018-12-27T11:12:45.745Z,24.75
2018-12-27T11:15:15.519Z,26.65
2018-12-27T11:17:45.515Z,23.27
2018-12-27T11:20:14.913Z,28.27
2018-12-27T11:22:44.453Z,19.95
2018-12-27T11:25:14.142Z,21.80
2018-12-27T11:27:43.365Z,27.22
2018-12-27T11:30:12.742Z,22.25
2018-12-27T11:32:42.078Z,24.50
2018-12-27T11:35:11.623Z,22.10
2018-12-27T11:37:40.594Z,20.77
2018-12-27T11:40:10.046Z,26.33
2018-12-27T11:42:39.666Z,24.25
2018-12-27T11:45:08.949Z,23.12
2018-12-27T11:47:38.357Z,22.60
2018-12-27T11:50:07.481Z,24.30
2018-12-27T11:52:36.755Z,24.50
2018-12-27T11:55:06.251Z,28.45
2018-12-27T11:57:35.856Z,24.67
2018-12-27T12:00:05.608Z,26.00
2018-12-27T12:02:34.621Z,27.15
2018-12-27T12:05:03.989Z,28.60
2018-12-27T12:07:33.256Z,28.90
2018-12-27T12:10:02.889Z,26.30
2018-12-27T12:12:32.124Z,29.90
2018-12-27T12:15:01.789Z,28.12
2018-12-27T12:17:30.758Z,28.55
2018-12-27T12:19:59.969Z,30.62
2018-12-27T12:22:28.965Z,32.17
2018-12-27T12:24:58.069Z,26.60
2018-12-27T12:27:27.661Z,26.48
2018-12-27T12:29:58.316Z,28.67
2018-12-27T12:32:28.351Z,31.45
2018-12-27T12:34:57.870Z,41.30
2018-12-27T12:37:28.695Z,28.60
2018-12-27T12:39:58.382Z,32.03
2018-12-27T12:42:32.791Z,31.15
2018-12-27T12:44:58.828Z,27.82
2018-12-27T12:47:28.010Z,31.42
2018-12-27T12:49:57.616Z,27.80
2018-12-27T12:52:27.231Z,26.17
2018-12-27T12:54:56.505Z,25.23
2018-12-27T12:57:25.612Z,27.93
2018-12-27T12:59:54.998Z,24.60
2018-12-27T13:02:24.872Z,26.85
2018-12-27T13:04:54.239Z,31.80
2018-12-27T13:07:23.661Z,25.00
2018-12-27T13:09:52.997Z,29.60
2018-12-27T13:12:22.345Z,28.50
2018-12-27T13:14:51.637Z,26.43
2018-12-27T13:17:21.254Z,25.23
2018-12-27T13:19:50.785Z,24.50
2018-12-27T13:22:20.274Z,24.90
2018-12-27T13:24:49.248Z,26.07
2018-12-27T13:27:18.295Z,28.77
2018-12-27T13:29:48.169Z,25.40
2018-12-27T13:32:17.987Z,30.80
2018-12-27T13:34:47.370Z,23.80
2018-12-27T13:37:17.083Z,33.57
2018-12-27T13:39:46.176Z,29.98
2018-12-27T13:42:15.516Z,26.10
2018-12-27T13:44:44.896Z,28.80
2018-12-27T13:47:13.864Z,29.00
2018-12-27T13:49:42.831Z,27.85
2018-12-27T13:52:12.023Z,30.27
2018-12-27T13:54:42.066Z,32.23
2018-12-27T13:57:14.597Z,26.27
2018-12-27T13:59:44.001Z,32.93
2018-12-27T14:02:13.129Z,27.27
2018-12-27T14:04:43.007Z,27.62
2018-12-27T14:07:12.422Z,26.93
2018-12-27T14:09:41.796Z,28.23
2018-12-27T14:12:11.294Z,32.80
2018-12-27T14:14:40.734Z,32.42
2018-12-27T14:17:10.343Z,27.70
2018-12-27T14:19:40.289Z,27.37
2018-12-27T14:22:09.482Z,31.33
2018-12-27T14:24:39.330Z,29.75
2018-12-27T14:27:09.016Z,30.55
2018-12-27T14:29:39.285Z,26.07
2018-12-27T14:32:09.092Z,36.50
2018-12-27T14:34:38.715Z,29.57
2018-12-27T14:37:08.166Z,27.70
2018-12-27T14:39:37.665Z,28.60
2018-12-27T14:42:07.443Z,27.52
2018-12-27T14:44:36.872Z,30.40
2018-12-27T14:47:06.537Z,37.88
2018-12-27T14:49:35.933Z,29.50
2018-12-27T14:52:05.349Z,33.53
2018-12-27T14:54:34.516Z,33.35
2018-12-27T14:57:03.820Z,37.33
2018-12-27T14:59:33.111Z,29.75
2018-12-27T15:02:02.059Z,41.15
2018-12-27T15:04:31.527Z,36.13
2018-12-27T15:07:00.544Z,30.57
2018-12-27T15:09:29.745Z,35.88
2018-12-27T15:11:59.107Z,37.88
2018-12-27T15:14:28.432Z,33.45
2018-12-27T15:16:57.571Z,31.25
2018-12-27T15:19:26.720Z,43.28
2018-12-27T15:21:55.807Z,33.00
2018-12-27T15:24:25.890Z,35.83
2018-12-27T15:26:55.429Z,32.58
2018-12-27T15:29:25.082Z,37.00
2018-12-27T15:31:54.540Z,37.30
2018-12-27T15:34:23.888Z,38.30
2018-12-27T15:36:54.491Z,36.55
2018-12-27T15:39:24.078Z,36.88
2018-12-27T15:41:53.713Z,36.90
2018-12-27T15:44:23.366Z,46.28
2018-12-27T15:46:52.430Z,43.92
2018-12-27T15:49:21.690Z,44.03
2018-12-27T15:51:50.698Z,40.28
2018-12-27T15:54:20.668Z,40.40
2018-12-27T15:56:49.772Z,39.42
2018-12-27T15:59:18.938Z,49.05
2018-12-27T16:01:48.671Z,47.03
2018-12-27T16:04:18.109Z,45.12
2018-12-27T16:06:47.404Z,54.95
2018-12-27T16:09:16.693Z,48.52
2018-12-27T16:11:45.901Z,53.40
2018-12-27T16:14:15.219Z,48.08
2018-12-27T16:16:44.130Z,55.43
2018-12-27T16:19:13.319Z,52.33
2018-12-27T16:21:42.609Z,52.62
2018-12-27T16:24:11.897Z,62.00
2018-12-27T16:26:41.608Z,56.25
2018-12-27T16:29:10.883Z,59.70
2018-12-27T16:31:40.861Z,64.12
2018-12-27T16:34:10.527Z,54.93
2018-12-27T16:36:39.750Z,57.03
2018-12-27T16:39:08.916Z,58.02
2018-12-27T16:41:38.224Z,59.73
2018-12-27T16:44:07.259Z,53.42
2018-12-27T16:46:36.923Z,49.50
2018-12-27T16:49:06.238Z,50.23
2018-12-27T16:51:35.838Z,46.28
2018-12-27T16:54:04.873Z,50.90
2018-12-27T16:56:33.878Z,49.80
2018-12-27T16:59:03.139Z,50.12
2018-12-27T17:01:32.429Z,46.58
2018-12-27T17:04:01.730Z,44.75
2018-12-27T17:06:31.162Z,54.13
2018-12-27T17:09:00.742Z,47.27
2018-12-27T17:11:29.942Z,54.25
2018-12-27T17:13:59.241Z,51.42
2018-12-27T17:16:29.063Z,51.02
2018-12-27T17:18:58.380Z,44.98
2018-12-27T17:21:27.677Z,54.98
2018-12-27T17:23:56.948Z,52.90
2018-12-27T17:26:26.267Z,50.65
2018-12-27T17:28:55.616Z,47.10
2018-12-27T17:31:24.609Z,51.33
2018-12-27T17:33:53.864Z,44.88
2018-12-27T17:36:23.058Z,42.38
2018-12-27T17:38:52.366Z,40.20
2018-12-27T17:41:21.658Z,49.73
2018-12-27T17:43:50.945Z,51.23
2018-12-27T17:46:20.767Z,44.33
2018-12-27T17:48:50.221Z,46.40
2018-12-27T17:51:19.138Z,45.50
2018-12-27T17:53:48.394Z,57.48
2018-12-27T17:56:18.056Z,58.63
2018-12-27T17:58:47.895Z,49.60
2018-12-27T18:01:16.882Z,46.50
2018-12-27T18:03:46.059Z,52.80
2018-12-27T18:06:15.036Z,50.08
2018-12-27T18:08:44.029Z,47.05
2018-12-27T18:11:13.472Z,51.95
2018-12-27T18:13:42.750Z,56.30
2018-12-27T18:16:11.767Z,53.02
2018-12-27T18:18:41.076Z,52.60
2018-12-27T18:21:10.750Z,60.78
2018-12-27T18:23:39.805Z,50.45
2018-12-27T18:26:09.157Z,55.60
2018-12-27T18:28:39.027Z,55.03
2018-12-27T18:31:08.042Z,55.83
2018-12-27T18:33:37.037Z,50.40
2018-12-27T18:36:06.007Z,46.70
2018-12-27T18:38:35.345Z,50.73
2018-12-27T18:41:04.661Z,48.50
2018-12-27T18:43:33.972Z,54.48
2018-12-27T18:46:02.936Z,47.00
2018-12-27T18:48:32.231Z,52.83
2018-12-27T18:51:01.189Z,51.20
2018-12-27T18:53:30.411Z,51.42
2018-12-27T18:56:00.109Z,46.95
2018-12-27T18:58:28.995Z,53.98
2018-12-27T19:00:58.695Z,59.48
2018-12-27T19:03:28.045Z,48.78
2018-12-27T19:05:57.349Z,56.35
2018-12-27T19:08:26.389Z,50.10
2018-12-27T19:11:31.656Z,53.98
2018-12-27T19:14:00.873Z,54.27
2018-12-27T19:16:30.190Z,52.70
2018-12-27T19:19:00.316Z,54.70
2018-12-27T19:21:50.050Z,54.98
2018-12-27T19:24:19.360Z,56.60
2018-12-27T19:26:48.351Z,52.73
2018-12-27T19:29:17.432Z,50.33
2018-12-27T19:31:46.893Z,56.73
2018-12-27T19:34:16.033Z,48.90
2018-12-27T19:36:44.975Z,45.63
2018-12-27T19:39:14.567Z,55.23
2018-12-27T19:41:43.775Z,43.80
2018-12-27T19:44:13.062Z,60.55
2018-12-27T19:46:41.959Z,51.58
2018-12-27T19:49:10.978Z,55.95
2018-12-27T19:51:40.961Z,52.48
2018-12-27T19:54:10.795Z,48.78
2018-12-27T19:56:40.073Z,56.30
2018-12-27T19:59:09.401Z,48.80
2018-12-27T20:01:38.690Z,51.48
2018-12-27T20:04:07.876Z,52.80
2018-12-27T20:06:37.141Z,48.15
2018-12-27T20:09:07.824Z,53.68
2018-12-27T20:11:37.638Z,51.53
2018-12-27T20:14:07.165Z,51.83
2018-12-27T20:16:36.120Z,49.80
2018-12-27T20:19:05.741Z,52.30
2018-12-27T20:21:34.644Z,52.45
2018-12-27T20:24:04.239Z,55.25
2018-12-27T20:26:33.421Z,52.08
2018-12-27T20:29:03.060Z,49.73
2018-12-27T20:31:32.776Z,57.62
2018-12-27T20:34:02.973Z,56.83
2018-12-27T20:36:32.378Z,56.50
2018-12-27T20:39:01.407Z,57.00
2018-12-27T20:41:33.336Z,54.18
2018-12-27T20:44:03.042Z,53.63
2018-12-27T20:46:32.635Z,57.40
2018-12-27T20:49:02.415Z,53.23
2018-12-27T20:51:31.396Z,57.58
2018-12-27T20:54:00.490Z,57.25
2018-12-27T20:56:30.196Z,52.73
2018-12-27T20:58:59.598Z,62.10
2018-12-27T21:01:28.849Z,52.78
2018-12-27T21:03:58.174Z,51.18
2018-12-27T21:06:28.185Z,52.48
2018-12-27T21:08:57.690Z,59.25
2018-12-27T21:11:26.829Z,59.40
2018-12-27T21:13:56.285Z,64.92
2018-12-27T21:16:26.089Z,66.33
2018-12-27T21:18:55.487Z,61.80
2018-12-27T21:21:24.791Z,65.92
2018-12-27T21:23:54.157Z,60.30
2018-12-27T21:26:23.532Z,60.55
2018-12-27T21:28:52.701Z,60.78
2018-12-27T21:31:22.183Z,62.90
2018-12-27T21:33:51.507Z,59.05
2018-12-27T21:36:20.713Z,60.15
2018-12-27T21:38:50.302Z,55.33
2018-12-27T21:41:19.295Z,58.42
2018-12-27T21:43:48.510Z,61.18
2018-12-27T21:46:17.900Z,61.13
2018-12-27T21:48:47.478Z,61.77
2018-12-27T21:51:17.152Z,57.38
2018-12-27T21:53:46.548Z,62.78
2018-12-27T21:56:15.565Z,64.50
2018-12-27T21:58:45.568Z,62.80
2018-12-27T22:01:14.954Z,70.55
2018-12-27T22:03:44.535Z,67.82
2018-12-27T22:06:14.317Z,81.17
2018-12-27T22:08:43.962Z,77.12
2018-12-27T22:11:13.142Z,76.50
2018-12-27T22:13:43.083Z,73.45
2018-12-27T22:16:12.371Z,89.65
2018-12-27T22:18:41.809Z,168.78
2018-12-27T22:21:12.079Z,133.97
2018-12-27T22:23:41.692Z,86.57
2018-12-27T22:26:11.246Z,230.00
2018-12-27T22:28:41.026Z,211.75
2018-12-27T22:31:10.567Z,94.52
2018-12-27T22:33:40.348Z,77.03
2018-12-27T22:36:09.746Z,76.85
2018-12-27T22:38:39.171Z,680.85
2018-12-27T22:41:08.546Z,671.92
2018-12-27T22:43:37.660Z,477.62
2018-12-27T22:46:07.177Z,137.50
2018-12-27T22:48:36.177Z,271.93
2018-12-27T22:51:05.337Z,163.37
2018-12-27T22:53:36.794Z,66.97
2018-12-27T22:56:06.023Z,149.93
2018-12-27T22:58:35.204Z,69.85
2018-12-27T23:01:04.788Z,217.93
2018-12-27T23:03:34.112Z,60.58
2018-12-27T23:06:03.932Z,304.80
2018-12-27T23:08:34.077Z,60.08
2018-12-27T23:11:03.843Z,63.33
2018-12-27T23:13:33.690Z,242.60
2018-12-27T23:16:02.756Z,96.05
2018-12-27T23:18:32.157Z,69.97
2018-12-27T23:21:05.199Z,96.97
2018-12-27T23:23:37.423Z,64.53
2018-12-27T23:26:06.767Z,64.90
2018-12-27T23:28:36.609Z,70.42
2018-12-27T23:31:05.929Z,130.27
2018-12-27T23:33:35.221Z,111.68
2018-12-27T23:36:11.949Z,81.00
2018-12-27T23:38:50.193Z,57.67
2018-12-27T23:41:16.745Z,126.65
2018-12-27T23:43:50.813Z,113.22
2018-12-27T23:46:26.840Z,72.55
2018-12-27T23:48:58.696Z,65.65
2018-12-27T23:51:36.003Z,82.10
2018-12-27T23:54:05.380Z,70.52
2018-12-27T23:56:35.309Z,63.92
2018-12-27T23:59:04.684Z,57.80
